Time;durP1;ratioP1;P1;durP2;ratioP2;P2;SDS_P1;SDS_P2;PMS_P1;PMS_P2;Temp;Humidity;BMP_temperature;BMP_pressure;BME280_temperature;BME280_humidity;BME280_pressure;Samples;Min_cycle;Max_cycle;Signal;HPM_P1;HPM_P2
2023/03/09 00:01:30;;;;;;;59.60;54.40;;;;;;;5.95;83.15;95688.56;106184;1290;22560;-84
2023/03/09 00:04:00;;;;;;;51.10;46.50;;;;;;;5.95;83.16;95688.52;106228;1290;22542;-83
2023/03/09 00:06:29;;;;;;;51.50;46.70;;;;;;;5.98;83.64;95685.70;106096;1290;22628;-82
2023/03/09 00:08:57;;;;;;;49.30;44.80;;;;;;;5.98;84.08;95677.02;106178;1279;24269;-82
2023/03/09 00:11:25;;;;;;;52.90;48.20;;;;;;;5.98;84.71;95671.83;106230;1290;24213;-82
2023/03/09 00:13:53;;;;;;;49.20;44.70;;;;;;;5.97;84.52;95673.60;106273;1290;22640;-83
2023/03/09 00:16:24;;;;;;;44.80;40.90;;;;;;;5.95;84.62;95673.76;106133;1290;22804;-83
2023/03/09 00:18:54;;;;;;;47.80;43.60;;;;;;;5.94;84.61;95671.41;106152;1290;22664;-83
2023/03/09 00:21:36;;;;;;;44.50;40.40;;;;;;;5.92;84.65;95671.86;106167;1290;25375;-82
2023/03/09 00:24:11;;;;;;;49.20;44.70;;;;;;;5.92;85.00;95665.98;106171;1290;22614;-84
2023/03/09 00:26:42;;;;;;;52.00;47.20;;;;;;;5.92;85.15;95665.39;106152;1290;25419;-83
2023/03/09 00:29:12;;;;;;;46.80;42.60;;;;;;;5.91;85.27;95669.31;106216;1290;22565;-81
2023/03/09 00:31:41;;;;;;;39.40;35.70;;;;;;;5.89;85.57;95671.15;106193;1290;22603;-83
2023/03/09 00:34:10;;;;;;;39.60;35.80;;;;;;;5.89;85.69;95673.58;106202;1290;22625;-84
2023/03/09 00:36:40;;;;;;;41.80;37.90;;;;;;;5.89;85.90;95672.16;106129;1290;22688;-83
2023/03/09 00:39:11;;;;;;;47.00;42.90;;;;;;;5.92;86.70;95669.50;106252;1286;25276;-82
2023/03/09 00:41:39;;;;;;;43.10;39.30;;;;;;;5.94;87.10;95661.44;106089;1290;23340;-82
2023/03/09 00:44:10;;;;;;;56.50;51.60;;;;;;;5.88;87.76;95656.15;108146;1260;22517;-90
2023/03/09 00:46:39;;;;;;;53.40;48.40;;;;;;;5.95;88.89;95663.92;107062;1287;26653;-90
2023/03/09 00:49:11;;;;;;;54.00;49.50;;;;;;;5.95;88.80;95663.29;106836;1287;25272;-88
2023/03/09 00:51:39;;;;;;;47.00;43.00;;;;;;;5.98;89.21;95663.55;107122;1287;24225;-90
2023/03/09 00:54:07;;;;;;;35.40;32.30;;;;;;;6.00;89.92;95661.59;106881;1287;25853;-91
2023/03/09 00:56:35;;;;;;;38.30;34.80;;;;;;;6.02;90.07;95659.29;106992;1287;22703;-90
2023/03/09 00:59:03;;;;;;;39.50;35.90;;;;;;;6.01;89.65;95659.40;107255;1287;22533;-89
2023/03/09 01:01:31;;;;;;;36.00;32.60;;;;;;;6.00;89.39;95652.88;107396;1287;22564;-90
2023/03/09 01:04:00;;;;;;;38.80;34.90;;;;;;;6.02;90.28;95650.95;107829;1287;23309;-91
2023/03/09 01:06:29;;;;;;;38.10;34.60;;;;;;;6.02;90.25;95647.23;107805;1287;22536;-91
2023/03/09 01:08:57;;;;;;;40.50;36.70;;;;;;;6.05;90.71;95646.56;107700;1287;22554;-89
2023/03/09 01:11:31;;;;;;;46.30;42.00;;;;;;;6.08;90.50;95648.59;107621;1287;24214;-89
2023/03/09 01:13:59;;;;;;;50.80;46.00;;;;;;;6.09;89.80;95646.52;107316;1287;22599;-88
2023/03/09 01:16:27;;;;;;;48.60;44.00;;;;;;;6.10;90.25;95641.41;107267;1287;22543;-88
2023/03/09 01:18:55;;;;;;;44.70;40.80;;;;;;;6.10;89.87;95640.05;107340;1287;22666;-90
2023/03/09 01:21:23;;;;;;;46.00;41.90;;;;;;;6.15;89.74;95636.39;107531;1287;22502;-91
2023/03/09 01:23:51;;;;;;;42.00;38.10;;;;;;;6.20;89.47;95628.56;107411;1287;22533;-90
2023/03/09 01:26:19;;;;;;;43.30;39.40;;;;;;;6.24;89.31;95623.06;107040;1287;22540;-88
2023/03/09 01:28:48;;;;;;;45.80;41.40;;;;;;;6.25;89.29;95621.66;106650;1287;22716;-87
2023/03/09 01:31:17;;;;;;;39.80;36.20;;;;;;;6.26;89.24;95621.79;106494;1287;24161;-85
2023/03/09 01:33:47;;;;;;;42.50;38.50;;;;;;;6.27;90.00;95620.33;106587;1287;22596;-87
2023/03/09 01:36:17;;;;;;;40.30;36.60;;;;;;;6.27;89.50;95608.91;106627;1287;22684;-84
2023/03/09 01:38:47;;;;;;;35.20;31.40;;;;;;;6.32;89.38;95605.16;106904;1287;22642;-86
2023/03/09 01:41:20;;;;;;;35.20;31.80;;;;;;;6.37;89.52;95610.09;107124;1287;23169;-88
2023/03/09 01:43:51;;;;;;;32.80;29.80;;;;;;;6.41;89.83;95610.38;107312;1287;22571;-88
2023/03/09 01:46:23;;;;;;;36.00;32.70;;;;;;;6.41;89.79;95606.72;107137;1288;22557;-89
2023/03/09 01:49:10;;;;;;;37.50;34.10;;;;;;;6.41;89.63;95607.16;106807;1288;22678;-87
2023/03/09 01:52:05;;;;;;;36.50;33.20;;;;;;;6.38;89.89;95598.13;107027;1288;22683;-89
2023/03/09 01:54:50;;;;;;;34.40;31.10;;;;;;;6.41;89.68;95593.09;106956;1288;22572;-89
2023/03/09 01:57:30;;;;;;;;;;;;;;;6.45;89.68;95591.19;107298;1288;22476;-88
2023/03/09 02:00:12;;;;;;;37.70;34.10;;;;;;;6.46;89.64;95593.65;107481;1288;22727;-88
2023/03/09 02:02:48;;;;;;;40.00;36.10;;;;;;;6.48;89.84;95587.55;106662;1288;24761;-87
2023/03/09 02:05:30;;;;;;;41.40;37.10;;;;;;;6.47;89.84;95581.92;106779;1288;22550;-86
2023/03/09 02:07:58;;;;;;;43.00;38.70;;;;;;;6.51;89.81;95588.95;107450;1288;22570;-82
2023/03/09 02:10:46;;;;;;;39.70;35.70;;;;;;;6.49;89.86;95588.94;109725;1288;22354;-82
2023/03/09 02:13:18;;;;;;;45.00;41.00;;;;;;;6.50;89.71;95587.06;109796;1268;22695;-81
2023/03/09 02:15:46;;;;;;;40.60;36.60;;;;;;;6.53;89.77;95583.67;109560;1288;24209;-88
2023/03/09 02:18:14;;;;;;;35.80;32.30;;;;;;;6.56;89.75;95581.73;108234;1288;22581;-86
2023/03/09 02:20:49;;;;;;;37.60;34.10;;;;;;;6.58;89.74;95581.17;107656;1288;23937;-88
2023/03/09 02:23:26;;;;;;;32.60;29.40;;;;;;;6.58;89.98;95581.11;107815;1288;22606;-90
2023/03/09 02:26:07;;;;;;;36.90;33.60;;;;;;;6.58;90.00;95583.54;107953;1288;24308;-88
2023/03/09 02:28:35;;;;;;;36.80;33.50;;;;;;;6.55;90.42;95581.45;107780;1288;22578;-88
2023/03/09 02:31:05;;;;;;;32.50;29.50;;;;;;;6.49;90.77;95577.95;107323;1288;23310;-88
2023/03/09 02:33:33;;;;;;;28.40;25.70;;;;;;;6.47;90.70;95584.33;107066;1288;22589;-88
2023/03/09 02:36:02;;;;;;;33.20;30.20;;;;;;;6.49;91.08;95580.46;106879;1288;22703;-86
2023/03/09 02:38:30;;;;;;;35.60;32.20;;;;;;;6.48;90.74;95580.42;107167;1288;22641;-88
2023/03/09 02:41:02;;;;;;;34.50;31.30;;;;;;;6.48;91.02;95579.60;106974;1288;22658;-87
2023/03/09 02:43:36;;;;;;;31.90;28.80;;;;;;;6.45;91.87;95582.02;106992;1288;23137;-86
2023/03/09 02:46:05;;;;;;;33.60;30.60;;;;;;;6.42;91.33;95583.42;107229;1288;22544;-90
2023/03/09 02:48:36;;;;;;;32.80;29.50;;;;;;;6.41;91.43;95587.21;107007;1288;22626;-87
2023/03/09 02:51:05;;;;;;;33.00;30.10;;;;;;;6.43;91.48;95592.64;106972;1288;25281;-88
2023/03/09 02:53:36;;;;;;;35.10;31.90;;;;;;;6.44;91.13;95589.55;106781;1288;24295;-88
2023/03/09 02:56:04;;;;;;;38.20;34.50;;;;;;;6.44;91.12;95592.77;106446;1288;25997;-82
2023/03/09 02:58:33;;;;;;;36.40;33.20;;;;;;;6.41;91.45;95588.34;106354;1288;22745;-86
2023/03/09 03:01:02;;;;;;;36.30;33.00;;;;;;;6.39;91.50;95588.15;106667;1288;24241;-85
2023/03/09 03:03:30;;;;;;;34.90;31.90;;;;;;;6.40;91.52;95591.06;106440;1288;23028;-86
2023/03/09 03:05:58;;;;;;;32.50;29.50;;;;;;;6.41;91.49;95592.44;106549;1288;22537;-86
2023/03/09 03:08:26;;;;;;;31.30;28.50;;;;;;;6.45;91.45;95585.20;106701;1288;23282;-87
2023/03/09 03:11:05;;;;;;;41.20;37.60;;;;;;;6.46;91.43;95580.73;106751;1283;22661;-86
2023/03/09 03:13:34;;;;;;;43.50;39.90;;;;;;;6.48;91.75;95580.61;106397;1288;22604;-85
2023/03/09 03:16:03;;;;;;;41.40;37.80;;;;;;;6.49;91.78;95577.72;106312;1288;26258;-84
2023/03/09 03:18:31;;;;;;;40.00;36.50;;;;;;;6.48;91.64;95570.82;107250;1288;22563;-85
2023/03/09 03:20:59;;;;;;;39.30;35.80;;;;;;;6.49;91.69;95568.08;108555;1288;24228;-84
2023/03/09 03:23:27;;;;;;;37.50;34.20;;;;;;;6.49;91.82;95561.67;106439;1288;26495;-88
2023/03/09 03:25:56;;;;;;;34.70;31.60;;;;;;;6.55;91.84;95562.35;106642;1288;22534;-88
2023/03/09 03:28:25;;;;;;;37.20;33.90;;;;;;;6.56;91.63;95560.61;106582;1279;24239;-87
2023/03/09 03:31:01;;;;;;;37.80;34.60;;;;;;;6.57;91.88;95557.04;106465;1288;24268;-85
2023/03/09 03:33:29;;;;;;;36.60;33.40;;;;;;;6.58;92.11;95557.78;106368;1288;22574;-87
2023/03/09 03:35:57;;;;;;;38.60;35.50;;;;;;;6.57;92.45;95555.77;106339;1288;24512;-88
2023/03/09 03:38:25;;;;;;;39.90;36.20;;;;;;;6.54;92.37;95549.31;106420;1288;25325;-88
2023/03/09 03:40:53;;;;;;;35.50;32.40;;;;;;;6.54;92.73;95545.64;106498;1288;23173;-88
2023/03/09 03:43:22;;;;;;;40.50;36.70;;;;;;;6.55;92.50;95547.14;106546;1288;24450;-87
2023/03/09 03:45:51;;;;;;;47.50;43.30;;;;;;;6.56;92.22;95545.46;106501;1288;22944;-88
2023/03/09 03:48:19;;;;;;;42.70;39.10;;;;;;;6.56;92.41;95547.92;106629;1288;23250;-87
2023/03/09 03:50:47;;;;;;;44.80;41.10;;;;;;;6.57;92.53;95541.90;106514;1288;22634;-90
2023/03/09 03:53:15;;;;;;;43.40;39.80;;;;;;;6.61;92.57;95543.90;106738;1288;25303;-90
2023/03/09 03:55:44;;;;;;;41.50;37.90;;;;;;;6.65;92.78;95544.11;106549;1288;22657;-89
2023/03/09 03:58:12;;;;;;;48.20;44.20;;;;;;;6.69;92.68;95543.78;106841;1288;22645;-91
2023/03/09 04:00:40;;;;;;;63.60;58.60;;;;;;;6.68;93.09;95537.63;106767;1288;23175;-90
2023/03/09 04:03:10;;;;;;;49.70;45.50;;;;;;;6.70;92.78;95540.75;106630;1288;22747;-90
2023/03/09 04:05:41;;;;;;;37.30;34.20;;;;;;;6.71;93.01;95541.70;106506;1288;22608;-88
2023/03/09 04:08:10;;;;;;;37.50;34.40;;;;;;;6.76;92.91;95544.72;106376;1288;22607;-90
2023/03/09 04:10:39;;;;;;;37.60;34.40;;;;;;;6.79;92.76;95546.05;106452;1288;22537;-89
2023/03/09 04:13:09;;;;;;;41.90;38.60;;;;;;;6.81;92.93;95540.81;106545;1288;22585;-89
2023/03/09 04:15:38;;;;;;;44.40;40.80;;;;;;;6.84;92.97;95541.67;106413;1288;25510;-90
2023/03/09 04:18:07;;;;;;;47.70;43.90;;;;;;;6.85;93.00;95541.24;106524;1288;24230;-90
2023/03/09 04:20:38;;;;;;;38.70;35.50;;;;;;;6.83;93.22;95542.41;106370;1288;22745;-89
2023/03/09 04:23:06;;;;;;;37.10;34.00;;;;;;;6.79;93.09;95544.91;106416;1288;22654;-88
2023/03/09 04:25:36;;;;;;;32.50;29.80;;;;;;;6.79;92.92;95540.39;106507;1288;24298;-88
2023/03/09 04:28:06;;;;;;;29.60;27.20;;;;;;;6.80;93.07;95538.27;106714;1288;22537;-90
2023/03/09 04:30:37;;;;;;;31.10;28.50;;;;;;;6.80;93.36;95534.98;106765;1288;24371;-90
2023/03/09 04:33:10;;;;;;;31.90;29.20;;;;;;;6.80;93.49;95536.74;106939;1288;24346;-89
2023/03/09 04:35:38;;;;;;;33.30;30.60;;;;;;;6.78;93.48;95532.00;107290;1288;25628;-91
2023/03/09 04:38:15;;;;;;;31.30;28.60;;;;;;;6.79;93.56;95529.67;107604;1288;24318;-87
2023/03/09 04:40:44;;;;;;;28.10;25.70;;;;;;;6.85;93.64;95522.65;107007;1288;22534;-89
2023/03/09 04:43:13;;;;;;;28.30;26.00;;;;;;;6.88;93.53;95522.67;108248;1288;22600;-87
2023/03/09 04:45:42;;;;;;;25.80;23.50;;;;;;;6.92;93.67;95514.88;108807;1288;25274;-91
2023/03/09 04:48:12;;;;;;;34.00;31.30;;;;;;;6.96;93.62;95517.44;107483;1288;22640;-87
2023/03/09 04:50:41;;;;;;;35.00;32.10;;;;;;;6.95;93.60;95512.96;106678;1288;22795;-88
2023/03/09 04:53:11;;;;;;;32.60;30.10;;;;;;;6.97;93.66;95519.83;106548;1288;22593;-86
2023/03/09 04:55:39;;;;;;;32.30;29.70;;;;;;;6.97;93.62;95513.44;106355;1288;25265;-86
2023/03/09 04:58:11;;;;;;;30.30;27.80;;;;;;;6.99;93.74;95509.27;106510;1288;22572;-85
2023/03/09 05:00:39;;;;;;;26.00;23.80;;;;;;;7.03;93.72;95511.27;106384;1288;24251;-82
2023/03/09 05:03:09;;;;;;;31.00;28.50;;;;;;;6.99;93.99;95508.91;106195;1288;25629;-82
2023/03/09 05:05:43;;;;;;;36.20;33.30;;;;;;;6.95;94.09;95506.01;106178;1288;25629;-82
2023/03/09 05:08:11;;;;;;;42.20;38.90;;;;;;;6.94;94.08;95503.14;106582;1288;24387;-84
2023/03/09 05:10:39;;;;;;;43.90;40.40;;;;;;;6.93;94.04;95502.19;106149;1288;25464;-83
2023/03/09 05:13:08;;;;;;;41.20;37.80;;;;;;;6.93;93.96;95499.83;106471;1288;24405;-85
2023/03/09 05:15:41;;;;;;;36.30;33.30;;;;;;;6.91;93.90;95494.17;106226;1288;22545;-84
2023/03/09 05:18:11;;;;;;;29.70;27.30;;;;;;;6.91;94.03;95494.48;106063;1288;23112;-84
2023/03/09 05:20:39;;;;;;;35.40;32.50;;;;;;;6.91;94.44;95498.68;106504;1288;22783;-83
2023/03/09 05:23:07;;;;;;;38.70;35.70;;;;;;;6.91;94.39;95496.56;106612;1288;22754;-89
2023/03/09 05:25:36;;;;;;;39.10;36.10;;;;;;;6.93;94.21;95495.77;106196;1288;25649;-90
2023/03/09 05:28:06;;;;;;;36.70;33.70;;;;;;;6.92;94.35;95493.38;106233;1288;24247;-84
2023/03/09 05:30:36;;;;;;;41.00;37.90;;;;;;;6.93;94.32;95492.17;106611;1288;22537;-87
2023/03/09 05:33:07;;;;;;;26.50;24.30;;;;;;;6.92;94.03;95493.21;106647;1288;22502;-92
2023/03/09 05:35:38;;;;;;;24.50;22.50;;;;;;;6.88;94.55;95495.14;107120;1288;23895;-88
2023/03/09 05:38:07;;;;;;;27.20;25.10;;;;;;;6.84;94.49;95494.64;106944;1288;22530;-89
2023/03/09 05:40:35;;;;;;;29.60;27.00;;;;;;;6.79;94.47;95488.36;106965;1288;22601;-86
2023/03/09 05:43:07;;;;;;;28.50;26.00;;;;;;;6.76;94.58;95492.55;106367;1288;23168;-83
2023/03/09 05:45:35;;;;;;;28.00;25.70;;;;;;;6.76;94.85;95492.42;106295;1288;22756;-82
2023/03/09 05:48:04;;;;;;;28.50;26.10;;;;;;;6.79;95.03;95496.16;106365;1288;25341;-83
2023/03/09 05:50:32;;;;;;;29.90;27.20;;;;;;;6.78;94.72;95497.82;106344;1288;24315;-82
2023/03/09 05:53:01;;;;;;;36.40;33.30;;;;;;;6.80;94.99;95497.23;106903;1288;24205;-82
2023/03/09 05:55:29;;;;;;;30.00;27.30;;;;;;;6.86;94.84;95495.00;106645;1288;22667;-82
2023/03/09 05:57:57;;;;;;;35.70;32.70;;;;;;;6.87;94.76;95491.02;106051;1288;22541;-82
2023/03/09 06:00:25;;;;;;;31.60;28.70;;;;;;;6.89;95.01;95494.58;106417;1288;22533;-81
2023/03/09 06:02:56;;;;;;;35.10;32.00;;;;;;;6.91;95.01;95490.52;106141;1288;22762;-84
2023/03/09 06:05:35;;;;;;;27.30;24.80;;;;;;;6.96;95.10;95491.90;106215;1288;22579;-82
2023/03/09 06:08:04;;;;;;;34.90;31.70;;;;;;;7.03;95.10;95491.06;106666;1288;24341;-82
2023/03/09 06:10:32;;;;;;;34.10;31.10;;;;;;;7.10;95.00;95490.27;106503;1288;24312;-83
2023/03/09 06:13:01;;;;;;;30.20;27.60;;;;;;;7.12;95.03;95483.90;106084;1288;22546;-81
2023/03/09 06:15:30;;;;;;;28.80;26.20;;;;;;;7.12;95.21;95485.21;106346;1288;22503;-82
2023/03/09 06:17:59;;;;;;;33.40;30.60;;;;;;;7.12;95.53;95483.30;106512;1288;22572;-84
2023/03/09 06:20:29;;;;;;;32.50;29.80;;;;;;;7.13;95.38;95489.36;106493;1288;22724;-84
2023/03/09 06:22:59;;;;;;;38.00;34.80;;;;;;;7.17;95.36;95484.52;106483;1288;22673;-84
2023/03/09 06:25:28;;;;;;;32.80;30.00;;;;;;;7.24;95.42;95486.88;106538;1288;22542;-82
2023/03/09 06:27:56;;;;;;;23.10;20.60;;;;;;;7.32;95.56;95488.27;106137;1288;22805;-83
2023/03/09 06:30:26;;;;;;;32.10;29.30;;;;;;;7.39;95.54;95487.25;106360;1288;24292;-84
2023/03/09 06:32:56;;;;;;;38.20;34.90;;;;;;;7.46;95.68;95487.17;106320;1288;22735;-83
2023/03/09 06:35:25;;;;;;;36.80;33.70;;;;;;;7.54;95.81;95488.33;106702;1288;22558;-86
2023/03/09 06:37:54;;;;;;;35.90;32.90;;;;;;;7.60;95.79;95489.10;106485;1288;22636;-85
2023/03/09 06:40:22;;;;;;;36.30;33.00;;;;;;;7.68;95.87;95487.80;106277;1288;26697;-85
2023/03/09 06:42:51;;;;;;;36.50;33.40;;;;;;;7.77;95.89;95483.92;106352;1288;23765;-85
2023/03/09 06:45:21;;;;;;;42.30;38.80;;;;;;;7.86;95.84;95487.33;106478;1288;22861;-87
2023/03/09 06:47:53;;;;;;;44.30;40.60;;;;;;;7.93;95.75;95488.67;106429;1288;22609;-85
2023/03/09 06:50:23;;;;;;;48.60;44.70;;;;;;;8.00;95.90;95488.17;106278;1288;23282;-84
2023/03/09 06:52:52;;;;;;;46.00;42.00;;;;;;;8.03;95.85;95488.04;106467;1288;22938;-85
2023/03/09 06:55:20;;;;;;;45.50;41.60;;;;;;;8.08;95.87;95485.72;106469;1288;22692;-86
2023/03/09 06:57:54;;;;;;;40.60;37.20;;;;;;;8.11;95.68;95481.52;106446;1288;22807;-86
2023/03/09 07:00:22;;;;;;;41.80;37.90;;;;;;;8.17;95.73;95476.94;106424;1288;22532;-86
2023/03/09 07:02:54;;;;;;;42.70;39.30;;;;;;;8.28;96.06;95475.45;106432;1288;22570;-85
2023/03/09 07:05:22;;;;;;;49.10;45.20;;;;;;;8.37;95.81;95478.45;106333;1288;25354;-85
2023/03/09 07:07:50;;;;;;;49.70;45.70;;;;;;;8.40;96.04;95480.81;106605;1288;22661;-90
2023/03/09 07:10:17;;;;;;;55.90;51.40;;;;;;;8.47;96.16;95479.74;106591;1288;22652;-90
2023/03/09 07:12:47;;;;;;;49.20;45.10;;;;;;;8.53;96.11;95475.30;106766;1288;24306;-91
2023/03/09 07:15:16;;;;;;;49.80;45.80;;;;;;;8.58;96.37;95471.89;106725;1288;24155;-90
2023/03/09 07:17:44;;;;;;;45.10;41.70;;;;;;;8.62;95.96;95475.52;106510;1288;22692;-89
2023/03/09 07:20:12;;;;;;;42.30;38.80;;;;;;;8.65;95.96;95472.46;106679;1288;23986;-88
2023/03/09 07:22:40;;;;;;;41.60;38.30;;;;;;;8.64;96.12;95471.65;106618;1288;25633;-89
2023/03/09 07:25:09;;;;;;;41.20;37.90;;;;;;;8.64;95.87;95469.89;106929;1288;22487;-91
2023/03/09 07:27:37;;;;;;;32.00;29.50;;;;;;;8.62;96.23;95467.11;106631;1288;22503;-92
2023/03/09 07:30:05;;;;;;;32.70;30.00;;;;;;;8.65;96.15;95468.92;106981;1288;25340;-88
2023/03/09 07:32:33;;;;;;;32.80;30.10;;;;;;;8.66;96.02;95463.05;107509;1288;22530;-89
2023/03/09 07:35:01;;;;;;;29.90;27.30;;;;;;;8.68;96.17;95462.08;107180;1288;22543;-91
2023/03/09 07:37:29;;;;;;;25.60;23.40;;;;;;;8.65;96.08;95457.80;106550;1288;25378;-89
2023/03/09 07:39:57;;;;;;;29.40;26.90;;;;;;;8.67;96.21;95451.32;106558;1288;24376;-91
2023/03/09 07:42:25;;;;;;;29.70;27.00;;;;;;;8.66;96.00;95451.00;106595;1288;22502;-90
2023/03/09 07:45:18;;;;;;;28.50;26.00;;;;;;;8.65;95.95;95444.67;106548;1288;22667;-93
2023/03/09 07:47:47;;;;;;;28.70;26.00;;;;;;;8.67;96.16;95442.88;106657;1288;22681;-89
2023/03/09 07:50:17;;;;;;;30.30;27.40;;;;;;;8.71;95.98;95441.91;106593;1288;22554;-91
2023/03/09 07:52:45;;;;;;;31.40;28.30;;;;;;;8.71;96.00;95443.23;106451;1288;22531;-88
2023/03/09 07:55:14;;;;;;;33.80;30.40;;;;;;;8.69;96.04;95445.08;106731;1288;24075;-91
2023/03/09 07:57:43;;;;;;;33.40;29.10;;;;;;;8.64;95.93;95448.97;106484;1288;22557;-89
2023/03/09 08:00:13;;;;;;;32.60;29.20;;;;;;;8.61;95.70;95453.33;106615;1288;24405;-91
2023/03/09 08:02:41;;;;;;;34.50;30.80;;;;;;;8.59;95.75;95462.20;106741;1288;22486;-91
2023/03/09 08:05:10;;;;;;;25.80;23.20;;;;;;;8.58;95.89;95461.85;106571;1288;22587;-92
2023/03/09 08:07:42;;;;;;;27.40;24.50;;;;;;;8.56;95.57;95468.48;106683;1281;22531;-91
2023/03/09 08:10:11;;;;;;;31.60;28.60;;;;;;;8.52;95.87;95469.84;106871;1288;22597;-90
2023/03/09 08:12:41;;;;;;;30.40;27.70;;;;;;;8.48;95.89;95474.70;106913;1288;22611;-88
2023/03/09 08:15:09;;;;;;;31.30;28.60;;;;;;;8.37;95.75;95472.41;106939;1288;22556;-87
2023/03/09 08:17:37;;;;;;;33.60;30.60;;;;;;;8.31;95.65;95474.31;107077;1288;22570;-88
2023/03/09 08:20:09;;;;;;;30.10;27.30;;;;;;;8.30;95.65;95474.42;107170;1288;22524;-89
2023/03/09 08:22:37;;;;;;;28.90;26.30;;;;;;;8.30;95.86;95473.84;107258;1288;22545;-88
2023/03/09 08:25:07;;;;;;;34.10;30.80;;;;;;;8.30;96.43;95473.44;107195;1288;22664;-92
2023/03/09 08:27:44;;;;;;;29.30;26.70;;;;;;;8.26;96.33;95476.33;107009;1288;22550;-89
2023/03/09 08:30:12;;;;;;;24.70;22.40;;;;;;;8.24;96.23;95468.73;106925;1288;23035;-90
2023/03/09 08:32:41;;;;;;;16.30;14.70;;;;;;;8.20;96.45;95472.09;106859;1288;22541;-91
2023/03/09 08:35:09;;;;;;;14.80;13.40;;;;;;;8.22;96.29;95470.00;106676;1288;22591;-87
2023/03/09 08:37:37;;;;;;;16.40;14.70;;;;;;;8.26;96.20;95465.58;106543;1288;23720;-87
2023/03/09 08:40:06;;;;;;;13.70;12.40;;;;;;;8.26;96.68;95465.75;106742;1288;22814;-85
2023/03/09 08:42:34;;;;;;;12.40;11.20;;;;;;;8.29;96.61;95468.20;107509;1282;24292;-87
2023/03/09 08:45:04;;;;;;;14.10;11.80;;;;;;;8.29;96.84;95469.20;107290;1270;22547;-88
2023/03/09 08:47:33;;;;;;;12.20;11.00;;;;;;;8.28;97.21;95469.86;107183;1288;22543;-89
2023/03/09 08:50:01;;;;;;;13.80;12.50;;;;;;;8.22;97.27;95474.15;108175;1285;22542;-92
2023/03/09 08:52:34;;;;;;;11.50;10.40;;;;;;;8.16;97.45;95470.63;108783;1285;22597;-86
2023/03/09 08:55:03;;;;;;;21.40;17.30;;;;;;;8.15;97.85;95482.33;108669;1282;22721;-83
2023/03/09 08:57:31;;;;;;;17.70;16.10;;;;;;;8.13;98.22;95483.73;109670;1288;22330;-86
2023/03/09 08:59:59;;;;;;;17.40;14.60;;;;;;;8.16;98.26;95479.12;109690;1288;22566;-87
2023/03/09 09:02:29;;;;;;;18.40;16.80;;;;;;;8.19;98.54;95485.13;108823;1273;22648;-90
2023/03/09 09:04:57;;;;;;;19.70;17.90;;;;;;;8.20;98.29;95481.59;108325;1287;25396;-91
2023/03/09 09:07:25;;;;;;;19.20;17.50;;;;;;;8.23;99.01;95482.73;107997;1288;22534;-90
2023/03/09 09:09:53;;;;;;;21.10;19.10;;;;;;;8.25;99.32;95488.63;107137;1288;22746;-92
2023/03/09 09:12:22;;;;;;;25.20;22.90;;;;;;;8.29;99.00;95486.75;107249;1288;25296;-91
2023/03/09 09:14:50;;;;;;;27.20;24.60;;;;;;;8.36;99.29;95488.48;107483;1284;22653;-89
2023/03/09 09:17:18;;;;;;;20.90;19.00;;;;;;;8.45;99.24;95490.04;107610;1288;22537;-91
2023/03/09 09:19:46;;;;;;;25.10;22.90;;;;;;;8.53;99.08;95487.95;107681;1288;22946;-91
2023/03/09 09:22:14;;;;;;;31.60;28.60;;;;;;;8.57;99.35;95489.98;107631;1288;22588;-90
2023/03/09 09:24:42;;;;;;;27.00;24.60;;;;;;;8.58;99.67;95495.23;107808;1281;22788;-87
2023/03/09 09:27:10;;;;;;;17.90;16.30;;;;;;;8.57;99.32;95495.63;107517;1271;24232;-90
2023/03/09 09:29:38;;;;;;;16.00;14.50;;;;;;;8.58;99.87;95494.67;107444;1288;25391;-87
2023/03/09 09:32:08;;;;;;;25.40;23.10;;;;;;;8.54;100.00;95492.59;107031;1267;22779;-87
2023/03/09 09:34:37;;;;;;;28.70;26.10;;;;;;;8.45;100.00;95493.02;106948;1282;22543;-89
2023/03/09 09:37:05;;;;;;;20.30;18.20;;;;;;;8.40;99.96;95496.96;107184;1284;25385;-90
2023/03/09 09:39:33;;;;;;;20.30;18.40;;;;;;;8.35;100.00;95494.49;107437;1288;25436;-90
2023/03/09 09:42:12;;;;;;;19.70;17.80;;;;;;;8.29;100.00;95493.88;107368;1288;23234;-88
2023/03/09 09:44:44;;;;;;;22.90;18.20;;;;;;;8.26;100.00;95502.15;107458;1288;22572;-91
2023/03/09 09:47:18;;;;;;;46.00;27.20;;;;;;;8.22;100.00;95502.50;107580;1288;25412;-89
2023/03/09 09:49:49;;;;;;;20.50;16.20;;;;;;;8.17;100.00;95509.95;107085;1288;25457;-90
2023/03/09 09:52:34;;;;;;;19.90;17.70;;;;;;;8.12;100.00;95508.05;106694;1288;23167;-91
2023/03/09 09:55:28;;;;;;;13.90;12.50;;;;;;;8.09;100.00;95516.57;106827;1288;24282;-90
2023/03/09 09:58:02;;;;;;;17.70;16.00;;;;;;;8.01;100.00;95518.02;107019;1288;22549;-90
2023/03/09 10:00:30;;;;;;;21.40;19.40;;;;;;;7.92;100.00;95518.82;106614;1287;22551;-90
2023/03/09 10:03:17;;;;;;;18.40;16.60;;;;;;;7.88;100.00;95518.26;106695;1288;22646;-89
2023/03/09 10:06:06;;;;;;;13.10;11.80;;;;;;;7.86;100.00;95526.93;106768;1288;23926;-91
2023/03/09 10:08:43;;;;;;;15.20;13.10;;;;;;;7.83;100.00;95526.93;106926;1288;22688;-88
2023/03/09 10:11:25;;;;;;;10.30;8.90;;;;;;;7.82;100.00;95528.49;106825;1288;22586;-89
2023/03/09 10:14:08;;;;;;;16.10;14.60;;;;;;;7.86;100.00;95522.48;107005;1288;22837;-88
2023/03/09 10:16:45;;;;;;;19.60;18.00;;;;;;;7.91;100.00;95524.39;107280;1285;22569;-88
2023/03/09 10:19:23;;;;;;;19.10;17.60;;;;;;;7.99;100.00;95526.07;108043;1288;22733;-88
2023/03/09 10:22:00;;;;;;;28.50;26.30;;;;;;;8.06;100.00;95524.82;107330;1289;22533;-90
2023/03/09 10:24:50;;;;;;;18.80;17.20;;;;;;;8.10;100.00;95527.39;107761;1288;173229;-91
2023/03/09 10:27:35;;;;;;;18.00;16.20;;;;;;;8.17;100.00;95533.81;107311;1288;23736;-90
2023/03/09 10:30:10;;;;;;;18.20;16.40;;;;;;;8.22;100.00;95537.38;107023;1287;22594;-88
2023/03/09 10:32:39;;;;;;;18.30;16.70;;;;;;;8.33;100.00;95543.98;106929;1288;22552;-91
2023/03/09 10:35:36;;;;;;;19.90;18.20;;;;;;;8.42;100.00;95547.38;106847;1288;25934;-89
2023/03/09 10:38:04;;;;;;;18.90;17.30;;;;;;;8.51;100.00;95557.14;107292;1288;22574;-90
2023/03/09 10:40:46;;;;;;;16.70;15.10;;;;;;;8.53;100.00;95557.27;107445;1288;25765;-88
2023/03/09 10:43:36;;;;;;;13.30;12.10;;;;;;;8.61;100.00;95564.02;107353;1288;25007;-89
2023/03/09 10:46:10;;;;;;;14.40;13.10;;;;;;;8.70;100.00;95572.81;106987;1288;22558;-90
2023/03/09 10:48:39;;;;;;;11.70;10.50;;;;;;;8.76;100.00;95575.14;107503;1288;22538;-90
2023/03/09 10:51:30;;;;;;;11.40;10.30;;;;;;;8.78;100.00;95579.89;107150;1289;22512;-90
2023/03/09 10:54:13;;;;;;;14.80;13.40;;;;;;;8.78;100.00;95577.96;107352;1289;26640;-92
2023/03/09 10:56:43;;;;;;;13.80;12.20;;;;;;;8.86;100.00;95586.77;107403;1285;23920;-91
2023/03/09 10:59:18;;;;;;;12.90;8.80;;;;;;;8.90;100.00;95597.44;107091;1288;25233;-90
2023/03/09 11:01:52;;;;;;;10.60;9.60;;;;;;;8.95;100.00;95601.48;107518;1288;22650;-91
2023/03/09 11:04:23;;;;;;;14.20;12.80;;;;;;;8.95;100.00;95610.16;106729;1288;25591;-90
2023/03/09 11:07:04;;;;;;;10.30;9.30;;;;;;;8.91;100.00;95622.95;106879;1288;22624;-90
2023/03/09 11:09:46;;;;;;;8.50;7.60;;;;;;;8.88;100.00;95634.05;106771;1288;23250;-89
2023/03/09 11:12:13;;;;;;;8.60;7.70;;;;;;;8.81;100.00;95637.42;106933;1288;22537;-90
2023/03/09 11:14:48;;;;;;;10.10;7.70;;;;;;;8.76;100.00;95651.39;107549;1288;23640;-88
2023/03/09 11:17:41;;;;;;;9.50;8.60;;;;;;;8.71;100.00;95643.12;107026;1288;22703;-89
2023/03/09 11:20:30;;;;;;;10.90;9.20;;;;;;;8.63;100.00;95654.80;106990;1289;22532;-90
2023/03/09 11:23:01;;;;;;;10.70;8.80;;;;;;;8.57;100.00;95662.14;106982;1278;22712;-91
2023/03/09 11:26:01;;;;;;;9.20;8.20;;;;;;;8.53;100.00;95665.94;107112;1288;24196;-83
2023/03/09 11:28:38;;;;;;;9.90;8.40;;;;;;;8.49;100.00;95670.27;106941;1288;22781;-88
2023/03/09 11:31:12;;;;;;;11.40;10.30;;;;;;;8.43;100.00;95680.36;107186;1288;22553;-91
2023/03/09 11:33:42;;;;;;;11.70;10.60;;;;;;;8.37;100.00;95679.16;107176;1288;24300;-89
2023/03/09 11:36:15;;;;;;;9.70;8.80;;;;;;;8.32;100.00;95690.45;106962;1288;24255;-91